Time;durP1;ratioP1;P1;durP2;ratioP2;P2;SDS_P1;SDS_P2;PMS_P1;PMS_P2;Temp;Humidity;BMP_temperature;BMP_pressure;BME280_temperature;BME280_humidity;BME280_pressure;Samples;Min_cycle;Max_cycle;Signal;HPM_P1;HPM_P2
2023/03/05 00:01:37;;;;;;;2.63;0.57;;;4.80;99.90;;;;;;6246184;23;20016;-82
2023/03/05 00:04:06;;;;;;;2.72;0.28;;;4.80;99.90;;;;;;6245861;23;20020;-83
2023/03/05 00:06:32;;;;;;;2.75;0.40;;;4.70;99.90;;;;;;6245880;23;20020;-83
2023/03/05 00:08:58;;;;;;;1.80;0.28;;;4.60;99.90;;;;;;6245816;23;20484;-84
2023/03/05 00:11:28;;;;;;;2.58;0.52;;;4.50;99.90;;;;;;6245716;23;20058;-83
2023/03/05 00:13:54;;;;;;;2.60;0.43;;;4.50;99.90;;;;;;6245762;23;20059;-83
2023/03/05 00:16:21;;;;;;;2.97;0.50;;;4.40;99.90;;;;;;6245621;23;20020;-83
2023/03/05 00:18:47;;;;;;;6.70;0.80;;;4.40;99.90;;;;;;6247188;22;20024;-83
2023/03/05 00:21:25;;;;;;;5.43;0.82;;;4.30;99.90;;;;;;6245423;23;20020;-82
2023/03/05 00:23:52;;;;;;;3.97;0.40;;;4.40;99.90;;;;;;6245541;23;20020;-83
2023/03/05 00:26:19;;;;;;;5.15;0.45;;;4.40;99.90;;;;;;6245477;23;20016;-82
2023/03/05 00:28:48;;;;;;;3.53;0.60;;;4.50;99.90;;;;;;6247021;22;20020;-82
2023/03/05 00:31:15;;;;;;;2.25;0.70;;;4.60;99.90;;;;;;6246032;23;20016;-82
2023/03/05 00:33:42;;;;;;;2.00;0.32;;;4.50;99.90;;;;;;6247093;22;20027;-82
2023/03/05 00:36:08;;;;;;;1.60;0.50;;;4.40;99.90;;;;;;6245326;23;20131;-83
2023/03/05 00:38:37;;;;;;;3.33;0.75;;;4.40;99.90;;;;;;6245247;23;20016;-82
2023/03/05 00:41:02;;;;;;;5.00;0.50;;;4.40;99.90;;;;;;6247065;22;20016;-82
2023/03/05 00:43:29;;;;;;;5.20;1.17;;;4.30;99.90;;;;;;6245303;23;20019;-82
2023/03/05 00:45:54;;;;;;;0.90;0.20;;;4.30;99.90;;;;;;6245357;23;20039;-83
2023/03/05 00:48:21;;;;;;;2.38;0.30;;;4.30;99.90;;;;;;6246814;23;20020;-82
2023/03/05 00:50:47;;;;;;;2.85;0.60;;;4.30;99.90;;;;;;6245175;23;20020;-82
2023/03/05 00:53:12;;;;;;;4.45;1.42;;;4.30;99.90;;;;;;6245054;23;20336;-82
2023/03/05 00:55:38;;;;;;;3.08;0.55;;;4.20;99.90;;;;;;6245058;23;20486;-83
2023/03/05 00:58:04;;;;;;;3.60;0.35;;;4.20;99.90;;;;;;6244888;23;20012;-82
2023/03/05 01:00:29;;;;;;;5.22;0.45;;;4.20;99.90;;;;;;6245056;23;20070;-82
2023/03/05 01:02:55;;;;;;;3.78;0.50;;;4.20;99.90;;;;;;6244937;23;20016;-82
2023/03/05 01:05:21;;;;;;;9.52;1.00;;;4.30;99.90;;;;;;6245041;23;20020;-82
2023/03/05 01:07:46;;;;;;;3.00;0.43;;;4.30;99.90;;;;;;6245033;23;20017;-82
2023/03/05 01:10:12;;;;;;;3.15;0.20;;;4.30;99.90;;;;;;6246355;22;20023;-82
2023/03/05 01:12:38;;;;;;;7.45;0.50;;;4.30;99.90;;;;;;6247279;23;20109;-82
2023/03/05 01:15:05;;;;;;;3.47;0.68;;;4.30;99.90;;;;;;6246647;22;20440;-82
2023/03/05 01:17:31;;;;;;;5.13;0.60;;;4.30;99.90;;;;;;6246655;22;20012;-82
2023/03/05 01:19:56;;;;;;;4.85;0.80;;;4.30;99.90;;;;;;6246804;22;20144;-82
2023/03/05 01:22:22;;;;;;;6.20;0.60;;;4.30;99.90;;;;;;6246848;22;20378;-82
2023/03/05 01:24:48;;;;;;;4.50;0.50;;;4.30;99.90;;;;;;6246487;23;20403;-82
2023/03/05 01:27:13;;;;;;;4.35;0.60;;;4.40;99.90;;;;;;6244818;23;20095;-82
2023/03/05 01:29:39;;;;;;;3.60;0.73;;;4.40;99.90;;;;;;6244803;23;20051;-82
2023/03/05 01:32:05;;;;;;;2.22;0.40;;;4.40;99.90;;;;;;6244801;23;20347;-82
2023/03/05 01:34:30;;;;;;;3.55;0.50;;;4.40;99.90;;;;;;6244593;23;20020;-82
2023/03/05 01:36:56;;;;;;;5.82;1.40;;;4.30;99.90;;;;;;6244547;23;20432;-82
2023/03/05 01:39:22;;;;;;;2.35;0.52;;;4.40;99.90;;;;;;6244611;23;20018;-82
2023/03/05 01:41:49;;;;;;;5.32;0.60;;;4.40;99.90;;;;;;6244849;23;20031;-82
2023/03/05 01:44:26;;;;;;;4.45;0.75;;;4.30;99.90;;;;;;6246366;22;20051;-82
2023/03/05 01:46:52;;;;;;;7.40;0.98;;;4.20;99.90;;;;;;6246642;23;20012;-82
2023/03/05 01:49:20;;;;;;;6.32;0.65;;;4.20;99.90;;;;;;6246090;23;20392;-82
2023/03/05 01:52:05;;;;;;;4.43;0.73;;;4.10;99.90;;;;;;6244676;23;20051;-82
2023/03/05 01:54:45;;;;;;;7.55;0.70;;;4.10;99.90;;;;;;6246638;22;20102;-82
2023/03/05 01:57:19;;;;;;;3.45;0.45;;;4.10;99.90;;;;;;6246255;22;20351;-82
2023/03/05 01:59:48;;;;;;;1.90;0.30;;;4.10;99.90;;;;;;6246392;22;20031;-82
2023/03/05 02:02:15;;;;;;;4.90;0.45;;;4.20;99.90;;;;;;6246130;22;20023;-82
2023/03/05 02:04:55;;;;;;;5.63;0.40;;;4.30;99.90;;;;;;6246974;22;20016;-82
2023/03/05 02:07:22;;;;;;;6.07;0.73;;;4.30;99.90;;;;;;6246597;22;20096;-82
2023/03/05 02:09:48;;;;;;;4.70;0.82;;;4.30;99.90;;;;;;6245956;22;20039;-82
2023/03/05 02:12:14;;;;;;;4.40;0.90;;;4.30;99.90;;;;;;6246805;22;20328;-82
2023/03/05 02:14:43;;;;;;;4.15;0.52;;;4.30;99.90;;;;;;6244534;23;20507;-81
2023/03/05 02:17:11;;;;;;;2.30;0.57;;;4.30;99.90;;;;;;6244539;23;20090;-82
2023/03/05 02:19:52;;;;;;;3.67;0.45;;;4.40;99.90;;;;;;6244600;23;20030;-82
2023/03/05 02:22:19;;;;;;;2.03;0.20;;;4.40;99.90;;;;;;6244580;23;20004;-82
2023/03/05 02:24:45;;;;;;;2.38;0.30;;;4.50;99.90;;;;;;6246494;22;20043;-82
2023/03/05 02:27:12;;;;;;;6.20;0.40;;;4.40;99.90;;;;;;6244568;23;20313;-82
2023/03/05 02:29:43;;;;;;;4.53;0.40;;;4.40;99.90;;;;;;6246504;22;20016;-82
2023/03/05 02:32:09;;;;;;;5.78;0.60;;;4.30;99.90;;;;;;6244543;23;20020;-82
2023/03/05 02:34:35;;;;;;;5.60;1.38;;;4.30;99.90;;;;;;6246246;22;20061;-82
2023/03/05 02:37:03;;;;;;;2.95;0.52;;;4.20;99.90;;;;;;6246403;22;20013;-82
2023/03/05 02:39:36;;;;;;;6.47;0.65;;;4.20;99.90;;;;;;6270869;22;20308;-82
2023/03/05 02:42:03;;;;;;;5.03;0.77;;;4.20;99.90;;;;;;6249433;22;20019;-82
2023/03/05 02:44:29;;;;;;;3.47;0.70;;;4.10;99.90;;;;;;6276496;22;20016;-82
2023/03/05 02:46:54;;;;;;;5.45;0.90;;;4.10;99.90;;;;;;6251512;22;20047;-82
2023/03/05 02:49:20;;;;;;;5.57;1.00;;;4.10;99.90;;;;;;6251263;22;20339;-82
2023/03/05 02:51:45;;;;;;;9.25;0.88;;;4.10;99.90;;;;;;6251599;22;20019;-82
2023/03/05 02:54:11;;;;;;;7.70;0.70;;;4.00;99.90;;;;;;6251866;22;20016;-82
2023/03/05 02:56:38;;;;;;;7.45;1.00;;;4.10;99.90;;;;;;6251433;22;20016;-82
2023/03/05 02:59:04;;;;;;;6.85;0.90;;;4.00;99.90;;;;;;6251313;22;20051;-82
2023/03/05 03:01:29;;;;;;;8.70;1.48;;;4.00;99.90;;;;;;6251276;22;20023;-82
2023/03/05 03:03:55;;;;;;;4.00;0.70;;;4.00;99.90;;;;;;6251405;22;20024;-82
2023/03/05 03:06:21;;;;;;;6.25;0.63;;;4.10;99.90;;;;;;6251280;22;20050;-82
2023/03/05 03:08:47;;;;;;;6.68;0.55;;;4.10;99.90;;;;;;6251300;22;20352;-82
2023/03/05 03:11:13;;;;;;;4.43;0.70;;;4.00;99.90;;;;;;6251164;22;20016;-82
2023/03/05 03:13:39;;;;;;;4.20;0.65;;;4.10;99.90;;;;;;6251073;22;20016;-82
2023/03/05 03:16:08;;;;;;;4.55;0.75;;;4.20;99.90;;;;;;6251182;22;20091;-82
2023/03/05 03:18:34;;;;;;;5.18;0.90;;;4.20;99.90;;;;;;6251196;22;20502;-82
2023/03/05 03:21:00;;;;;;;2.90;0.75;;;4.20;99.90;;;;;;6251133;22;20018;-82
2023/03/05 03:23:26;;;;;;;4.10;0.60;;;4.20;99.90;;;;;;6278539;22;20035;-82
2023/03/05 03:25:51;;;;;;;9.02;0.93;;;4.20;99.90;;;;;;6251121;22;20393;-82
2023/03/05 03:28:17;;;;;;;5.00;1.55;;;4.20;99.90;;;;;;6278582;22;20023;-82
2023/03/05 03:30:43;;;;;;;1.98;0.20;;;4.10;99.90;;;;;;6250968;22;20022;-82
2023/03/05 03:33:08;;;;;;;1.45;0.20;;;4.10;99.90;;;;;;6251113;22;20012;-82
2023/03/05 03:35:34;;;;;;;3.22;0.65;;;4.20;99.90;;;;;;6251186;22;20024;-81
2023/03/05 03:38:00;;;;;;;1.27;0.20;;;4.10;99.90;;;;;;6250892;22;20087;-82
2023/03/05 03:40:26;;;;;;;1.50;0.20;;;4.20;99.90;;;;;;6278048;22;20030;-82
2023/03/05 03:42:52;;;;;;;2.20;0.35;;;4.10;99.90;;;;;;6250986;22;20016;-82
2023/03/05 03:45:20;;;;;;;3.35;0.30;;;4.10;99.90;;;;;;6278419;22;20016;-82
2023/03/05 03:47:50;;;;;;;1.98;0.20;;;4.10;99.90;;;;;;6277979;22;20016;-82
2023/03/05 03:50:17;;;;;;;13.15;1.85;;;4.10;99.90;;;;;;6251058;22;20011;-82
2023/03/05 03:52:42;;;;;;;3.78;0.80;;;4.10;99.90;;;;;;6278007;22;20020;-82
2023/03/05 03:55:09;;;;;;;4.28;0.60;;;4.10;99.90;;;;;;6250962;22;20339;-82
2023/03/05 03:57:35;;;;;;;3.33;0.68;;;4.10;99.90;;;;;;6250745;22;20012;-82
2023/03/05 04:00:01;;;;;;;6.28;0.90;;;4.10;99.90;;;;;;6250858;22;20022;-82
2023/03/05 04:02:27;;;;;;;5.05;0.35;;;4.10;99.90;;;;;;6278310;22;20116;-82
2023/03/05 04:04:53;;;;;;;8.00;1.40;;;4.10;99.90;;;;;;6250657;22;20398;-82
2023/03/05 04:07:18;;;;;;;5.30;0.90;;;4.10;99.90;;;;;;6277793;22;20018;-82
2023/03/05 04:09:44;;;;;;;3.17;0.55;;;4.10;99.90;;;;;;6277827;22;20065;-82
2023/03/05 04:12:10;;;;;;;6.43;0.85;;;4.10;99.90;;;;;;6250823;22;20019;-82
2023/03/05 04:14:36;;;;;;;3.83;0.57;;;4.10;99.90;;;;;;6250769;22;20017;-82
2023/03/05 04:17:02;;;;;;;6.32;1.33;;;4.10;99.90;;;;;;6277525;22;20027;-82
2023/03/05 04:19:29;;;;;;;5.75;0.80;;;4.20;99.90;;;;;;6250405;22;20348;-82
2023/03/05 04:21:56;;;;;;;5.55;1.58;;;4.20;99.90;;;;;;6250736;22;20023;-82
2023/03/05 04:24:22;;;;;;;2.75;0.40;;;4.30;99.90;;;;;;6250777;22;20343;-82
2023/03/05 04:26:47;;;;;;;3.30;0.52;;;4.30;99.90;;;;;;6251388;22;20462;-83
2023/03/05 04:29:13;;;;;;;1.70;0.55;;;4.20;99.90;;;;;;6250757;22;20023;-83
2023/03/05 04:31:38;;;;;;;4.28;0.52;;;4.10;99.90;;;;;;6250660;22;20016;-83
2023/03/05 04:34:04;;;;;;;5.13;0.68;;;4.10;99.90;;;;;;6250649;22;20462;-83
2023/03/05 04:36:30;;;;;;;3.15;0.80;;;3.90;99.90;;;;;;6277633;22;20506;-83
2023/03/05 04:38:55;;;;;;;6.00;0.98;;;3.90;99.90;;;;;;6250159;22;20467;-83
2023/03/05 04:41:21;;;;;;;7.03;0.98;;;3.90;99.90;;;;;;6250463;22;20048;-83
2023/03/05 04:43:47;;;;;;;4.25;0.52;;;3.80;99.90;;;;;;6250343;22;20024;-83
2023/03/05 04:46:12;;;;;;;7.47;1.00;;;3.90;99.90;;;;;;6250347;22;20023;-83
2023/03/05 04:48:38;;;;;;;5.75;0.90;;;3.80;99.90;;;;;;6250336;22;20015;-82
2023/03/05 04:51:04;;;;;;;5.63;1.00;;;3.90;99.90;;;;;;6250263;22;20024;-82
2023/03/05 04:53:29;;;;;;;7.68;0.80;;;3.80;99.90;;;;;;6250306;22;20011;-83
2023/03/05 04:55:55;;;;;;;5.30;0.75;;;3.80;99.90;;;;;;6250355;22;20011;-83
2023/03/05 04:58:22;;;;;;;7.00;2.03;;;3.90;99.90;;;;;;6250240;22;20012;-83
2023/03/05 05:00:47;;;;;;;8.43;1.27;;;3.90;99.90;;;;;;6277331;22;20087;-83
2023/03/05 05:03:13;;;;;;;7.43;1.67;;;3.90;99.90;;;;;;6250109;22;20016;-83
2023/03/05 05:05:38;;;;;;;9.32;1.20;;;3.90;99.90;;;;;;6250139;22;20483;-83
2023/03/05 05:08:04;;;;;;;3.58;1.08;;;3.90;99.90;;;;;;6249882;22;20086;-82
2023/03/05 05:10:30;;;;;;;8.98;0.65;;;4.00;99.90;;;;;;6249966;22;20389;-83
2023/03/05 05:12:56;;;;;;;8.80;1.20;;;4.10;99.90;;;;;;6250075;22;20054;-83
2023/03/05 05:15:22;;;;;;;4.82;1.00;;;4.10;99.90;;;;;;6277309;22;20027;-83
2023/03/05 05:17:48;;;;;;;5.72;1.52;;;4.10;99.90;;;;;;6249949;22;20008;-83
2023/03/05 05:20:15;;;;;;;5.25;0.70;;;4.10;99.90;;;;;;6276914;22;20051;-82
2023/03/05 05:22:41;;;;;;;4.57;0.75;;;4.10;99.90;;;;;;6250036;22;20527;-83
2023/03/05 05:25:09;;;;;;;3.65;0.90;;;4.10;99.90;;;;;;6250005;22;20451;-82
2023/03/05 05:27:35;;;;;;;3.63;0.80;;;4.20;99.90;;;;;;6249968;22;20502;-82
2023/03/05 05:30:02;;;;;;;2.42;0.80;;;4.10;99.90;;;;;;6249624;22;20094;-83
2023/03/05 05:32:28;;;;;;;2.42;0.38;;;4.10;99.90;;;;;;6277360;22;20023;-83
2023/03/05 05:34:58;;;;;;;3.97;0.43;;;4.10;99.90;;;;;;6249778;22;20087;-82
2023/03/05 05:37:24;;;;;;;2.20;0.50;;;4.10;99.90;;;;;;6249982;22;20470;-83
2023/03/05 05:39:51;;;;;;;7.35;0.60;;;4.10;99.90;;;;;;6249851;22;20067;-83
2023/03/05 05:42:19;;;;;;;3.08;0.45;;;4.10;99.90;;;;;;6249922;22;20051;-82
2023/03/05 05:44:46;;;;;;;6.10;0.50;;;4.10;99.90;;;;;;6249793;22;20015;-82
2023/03/05 05:47:13;;;;;;;5.13;0.90;;;4.10;99.90;;;;;;6249735;22;20012;-83
2023/03/05 05:49:38;;;;;;;9.32;0.73;;;4.10;99.90;;;;;;6249695;22;20011;-82
2023/03/05 05:52:04;;;;;;;4.65;0.65;;;4.10;99.90;;;;;;6249886;22;20317;-82
2023/03/05 05:54:30;;;;;;;2.90;0.73;;;4.10;99.90;;;;;;6249719;22;20015;-82
2023/03/05 05:56:55;;;;;;;1.95;0.47;;;4.10;99.90;;;;;;6249851;22;20405;-82
2023/03/05 05:59:21;;;;;;;4.15;1.00;;;4.10;99.90;;;;;;6276931;22;20073;-82
2023/03/05 06:01:47;;;;;;;4.28;0.45;;;4.10;99.90;;;;;;6249743;22;20024;-82
2023/03/05 06:04:12;;;;;;;9.10;1.08;;;4.10;99.90;;;;;;6249601;22;20054;-82
2023/03/05 06:06:38;;;;;;;4.53;0.73;;;4.10;99.90;;;;;;6250698;22;20015;-82
2023/03/05 06:09:04;;;;;;;6.93;0.70;;;4.10;99.90;;;;;;6249666;22;20012;-83
2023/03/05 06:11:30;;;;;;;6.05;0.70;;;4.00;99.90;;;;;;6249248;22;20020;-82
2023/03/05 06:13:56;;;;;;;4.38;0.57;;;4.00;99.90;;;;;;6249349;22;20046;-82
2023/03/05 06:16:23;;;;;;;4.68;0.98;;;4.10;99.90;;;;;;6248697;22;20020;-82
2023/03/05 06:18:50;;;;;;;3.90;0.60;;;4.10;99.90;;;;;;6275867;22;20086;-82
2023/03/05 06:21:17;;;;;;;2.75;0.60;;;4.10;99.90;;;;;;6251335;22;20448;-82
2023/03/05 06:23:44;;;;;;;5.63;0.70;;;4.10;99.90;;;;;;6251413;22;20053;-82
2023/03/05 06:26:12;;;;;;;5.90;0.82;;;4.10;99.90;;;;;;6251553;22;20020;-82
2023/03/05 06:28:38;;;;;;;3.90;0.57;;;4.10;99.90;;;;;;6251514;22;20039;-82
2023/03/05 06:31:10;;;;;;;5.57;0.77;;;4.10;99.90;;;;;;6251438;22;20015;-82
2023/03/05 06:33:37;;;;;;;4.13;0.57;;;4.10;99.90;;;;;;6251459;22;20012;-82
2023/03/05 06:36:07;;;;;;;5.07;0.60;;;4.10;99.90;;;;;;6251847;22;20332;-82
2023/03/05 06:38:33;;;;;;;3.80;0.60;;;4.10;99.90;;;;;;6251468;22;20039;-82
2023/03/05 06:41:00;;;;;;;4.55;0.63;;;4.10;99.90;;;;;;6251336;22;20317;-82
2023/03/05 06:43:26;;;;;;;4.38;1.00;;;4.20;99.90;;;;;;6251582;22;20018;-82
2023/03/05 06:46:08;;;;;;;9.70;0.70;;;4.20;99.90;;;;;;6251485;22;20343;-81
2023/03/05 06:48:33;;;;;;;2.78;0.50;;;4.20;99.90;;;;;;6251420;22;20024;-82
2023/03/05 06:50:59;;;;;;;6.15;0.75;;;4.30;99.90;;;;;;6251101;22;20106;-82
2023/03/05 06:53:25;;;;;;;5.28;0.80;;;4.30;99.90;;;;;;6251522;22;20073;-82
2023/03/05 06:55:52;;;;;;;10.68;1.23;;;4.40;99.90;;;;;;6251084;22;20019;-82
2023/03/05 06:58:18;;;;;;;6.88;0.73;;;4.40;99.90;;;;;;6251247;22;20023;-82
2023/03/05 07:00:44;;;;;;;7.90;1.77;;;4.40;99.90;;;;;;6251227;22;20026;-82
2023/03/05 07:03:10;;;;;;;2.33;1.13;;;4.40;99.90;;;;;;6251422;22;20024;-82
2023/03/05 07:05:40;;;;;;;4.18;0.50;;;4.40;99.90;;;;;;6250735;22;20103;-82
2023/03/05 07:08:06;;;;;;;4.90;0.68;;;4.50;99.90;;;;;;6251056;22;20062;-82
2023/03/05 07:10:37;;;;;;;4.20;0.50;;;4.50;99.90;;;;;;6277796;22;20026;-82
2023/03/05 07:13:02;;;;;;;2.65;0.32;;;4.50;99.90;;;;;;6251050;22;20087;-82
2023/03/05 07:15:28;;;;;;;4.60;1.25;;;4.60;99.90;;;;;;6251240;22;20058;-83
2023/03/05 07:17:55;;;;;;;4.50;0.57;;;4.60;99.90;;;;;;6251130;22;20012;-82
2023/03/05 07:23:42;;;;;;;1.98;0.28;;;4.60;99.90;;;;;;6251059;22;20069;-83
2023/03/05 07:26:09;;;;;;;3.97;0.45;;;4.70;99.90;;;;;;6251410;22;20012;-83
2023/03/05 07:28:35;;;;;;;3.50;0.43;;;4.70;99.90;;;;;;6251179;22;20022;-83
2023/03/05 07:31:10;;;;;;;5.78;0.65;;;4.80;99.90;;;;;;6277970;22;20094;-83
2023/03/05 07:33:36;;;;;;;6.72;0.68;;;4.80;99.90;;;;;;6250958;22;20016;-82
2023/03/05 07:36:03;;;;;;;8.10;0.70;;;4.80;99.90;;;;;;6250876;22;20338;-83
2023/03/05 07:38:30;;;;;;;8.63;0.90;;;4.90;99.90;;;;;;6250601;22;20378;-83
2023/03/05 07:41:05;;;;;;;7.65;0.68;;;4.90;99.90;;;;;;6250918;22;20019;-83
2023/03/05 07:43:30;;;;;;;9.27;2.65;;;4.90;99.90;;;;;;6250949;22;20018;-83
2023/03/05 07:45:58;;;;;;;3.25;0.80;;;4.90;99.90;;;;;;6250903;22;20447;-82
2023/03/05 07:48:24;;;;;;;2.55;0.68;;;4.90;99.90;;;;;;6250498;22;20023;-83
2023/03/05 07:51:03;;;;;;;4.82;0.70;;;4.90;99.90;;;;;;6250347;22;20042;-82
2023/03/05 07:53:28;;;;;;;3.53;0.52;;;5.00;99.90;;;;;;6251291;22;20531;-83
2023/03/05 07:55:54;;;;;;;6.28;0.43;;;5.00;99.90;;;;;;6250796;22;20043;-82
2023/03/05 07:58:20;;;;;;;6.43;1.70;;;5.10;99.90;;;;;;6278043;22;20055;-86
2023/03/05 08:00:45;;;;;;;6.22;0.77;;;5.00;99.90;;;;;;6250874;22;20016;-84
2023/03/05 08:03:11;;;;;;;8.23;0.77;;;5.00;99.90;;;;;;6225280;22;20073;-83
2023/03/05 08:05:41;;;;;;;3.22;0.38;;;5.10;99.90;;;;;;6250677;22;20046;-83
2023/03/05 08:08:07;;;;;;;2.63;0.50;;;5.00;99.90;;;;;;6250581;22;20010;-84
2023/03/05 08:10:34;;;;;;;4.82;0.55;;;5.10;99.90;;;;;;6250346;22;20202;-83
2023/03/05 08:13:00;;;;;;;11.20;1.15;;;5.10;99.90;;;;;;6250660;22;20012;-83
2023/03/05 08:15:26;;;;;;;5.03;1.35;;;5.20;99.90;;;;;;6250650;22;20047;-83
2023/03/05 08:17:52;;;;;;;4.07;0.52;;;5.30;99.90;;;;;;6278058;22;20011;-83
2023/03/05 08:20:18;;;;;;;3.13;0.90;;;5.40;99.90;;;;;;6249469;22;20162;-83
2023/03/05 08:22:45;;;;;;;4.10;0.60;;;5.40;99.90;;;;;;6250294;22;20027;-83
2023/03/05 08:25:11;;;;;;;5.45;1.42;;;5.40;99.90;;;;;;6250725;22;20038;-83
2023/03/05 08:27:43;;;;;;;3.47;0.60;;;5.40;99.90;;;;;;6250086;22;20019;-83
2023/03/05 08:30:12;;;;;;;7.93;0.67;;;5.50;99.90;;;;;;6250142;22;20011;-84
2023/03/05 08:32:38;;;;;;;3.90;0.70;;;5.50;99.90;;;;;;6277556;22;20026;-85
2023/03/05 08:35:05;;;;;;;5.13;1.25;;;5.40;99.90;;;;;;6249707;22;20020;-85
2023/03/05 08:37:31;;;;;;;6.10;0.65;;;5.40;99.90;;;;;;6249777;22;20020;-84
2023/03/05 08:40:02;;;;;;;9.63;1.15;;;5.30;99.90;;;;;;6250057;22;20026;-86
2023/03/05 08:42:27;;;;;;;5.53;1.27;;;5.30;99.90;;;;;;6277177;22;20047;-87
2023/03/05 08:44:53;;;;;;;7.05;0.98;;;5.30;99.90;;;;;;6249633;22;20023;-88
2023/03/05 08:47:19;;;;;;;7.40;1.00;;;5.30;99.90;;;;;;6250131;22;20015;-86
2023/03/05 08:49:45;;;;;;;5.20;0.63;;;5.30;99.90;;;;;;6250128;22;20022;-88
2023/03/05 08:52:11;;;;;;;5.53;0.63;;;5.40;99.90;;;;;;6249786;22;20094;-88
2023/03/05 08:54:37;;;;;;;6.75;1.20;;;5.50;99.90;;;;;;6250061;22;20101;-86
2023/03/05 08:57:03;;;;;;;4.55;0.68;;;5.60;99.90;;;;;;6249980;22;20465;-82
2023/03/05 08:59:29;;;;;;;11.52;1.10;;;5.70;99.90;;;;;;6249882;22;20065;-84
2023/03/05 09:01:59;;;;;;;5.10;0.80;;;5.70;99.90;;;;;;6249553;22;20374;-89
2023/03/05 09:04:25;;;;;;;3.05;0.70;;;5.80;99.90;;;;;;6249997;22;20031;-86
2023/03/05 09:06:51;;;;;;;3.28;0.68;;;5.80;99.90;;;;;;6277078;22;20016;-87
2023/03/05 09:09:19;;;;;;;5.22;0.45;;;5.70;99.90;;;;;;6250270;22;20455;-87
2023/03/05 09:11:45;;;;;;;5.22;0.80;;;5.70;99.90;;;;;;6250267;22;20020;-87
2023/03/05 09:14:10;;;;;;;3.17;0.57;;;5.70;99.90;;;;;;6250368;22;20096;-87
2023/03/05 09:16:39;;;;;;;8.82;1.92;;;5.70;99.90;;;;;;6250572;22;20024;-88
2023/03/05 09:19:07;;;;;;;5.90;0.70;;;5.70;99.90;;;;;;6249721;22;20016;-88
2023/03/05 09:21:33;;;;;;;5.43;1.05;;;5.70;99.90;;;;;;6250022;22;20348;-88
2023/03/05 09:23:59;;;;;;;3.38;0.43;;;5.70;99.90;;;;;;6249500;22;20492;-87
2023/03/05 09:26:25;;;;;;;7.03;1.63;;;5.80;99.90;;;;;;6249730;22;20022;-87
2023/03/05 09:28:51;;;;;;;2.72;0.82;;;5.90;99.90;;;;;;6249630;22;20022;-87
2023/03/05 09:31:17;;;;;;;7.07;1.10;;;6.00;99.90;;;;;;6249873;22;20051;-88
2023/03/05 09:33:45;;;;;;;6.47;0.68;;;6.00;99.90;;;;;;6249794;22;20023;-89
2023/03/05 09:36:23;;;;;;;3.58;0.93;;;6.10;99.90;;;;;;6250089;22;20020;-88
2023/03/05 09:38:49;;;;;;;3.88;0.45;;;6.20;99.90;;;;;;6250200;22;20047;-88
2023/03/05 09:41:39;;;;;;;2.08;0.30;;;6.30;99.90;;;;;;6277058;22;20031;-87
2023/03/05 09:44:46;;;;;;;4.90;0.70;;;6.40;99.90;;;;;;6249710;22;20016;-90
2023/03/05 09:47:38;;;;;;;2.92;0.85;;;6.50;99.90;;;;;;6249683;22;20046;-87
2023/03/05 09:50:25;;;;;;;5.90;0.88;;;6.60;99.90;;;;;;6276683;22;20107;-88
2023/03/05 09:52:58;;;;;;;6.30;0.70;;;6.70;99.90;;;;;;6250043;22;20015;-87
2023/03/05 09:55:29;;;;;;;;;;;6.80;99.90;;;;;;6250272;22;20085;-84
2023/03/05 09:58:04;;;;;;;7.32;0.80;;;6.80;99.90;;;;;;6249145;22;20323;-85
2023/03/05 10:00:46;;;;;;;4.22;0.52;;;6.80;99.90;;;;;;6249854;22;20566;-84
2023/03/05 10:03:37;;;;;;;4.32;0.60;;;6.90;99.90;;;;;;6249673;22;20024;-87
2023/03/05 10:10:00;;;;;;;6.30;0.70;;;6.90;99.90;;;;;;6276653;22;20395;-86
2023/03/05 10:12:49;;;;;;;9.27;1.30;;;6.90;99.90;;;;;;6249580;22;20094;-86
2023/03/05 10:15:25;;;;;;;7.13;1.02;;;6.80;99.90;;;;;;6249476;22;20015;-85
2023/03/05 10:18:17;;;;;;;5.38;0.85;;;6.80;99.90;;;;;;6249576;22;20015;-85
2023/03/05 10:21:12;;;;;;;2.72;0.50;;;6.70;99.90;;;;;;6249565;22;20016;-85
2023/03/05 10:23:46;;;;;;;5.40;0.90;;;6.60;99.90;;;;;;6249327;22;20051;-85
2023/03/05 10:26:30;;;;;;;5.57;0.50;;;6.60;99.90;;;;;;6276695;22;20011;-85
2023/03/05 10:29:14;;;;;;;6.82;1.20;;;6.70;99.90;;;;;;6249480;22;20054;-85
2023/03/05 10:31:58;;;;;;;4.10;0.63;;;6.60;99.90;;;;;;6249390;22;20015;-84
2023/03/05 10:34:39;;;;;;;2.58;0.40;;;6.60;99.90;;;;;;6249465;22;20028;-85
2023/03/05 10:37:23;;;;;;;5.25;0.93;;;6.80;99.90;;;;;;6249124;22;20468;-85
2023/03/05 10:40:05;;;;;;;6.82;0.98;;;6.90;99.90;;;;;;6249311;22;20027;-85
2023/03/05 10:42:43;;;;;;;3.17;0.60;;;7.00;99.90;;;;;;6249371;22;20031;-85
2023/03/05 10:45:15;;;;;;;7.40;0.95;;;7.20;99.90;;;;;;6249072;22;20389;-85
2023/03/05 10:47:50;;;;;;;5.30;0.68;;;7.40;99.90;;;;;;6249256;22;20195;-85
2023/03/05 10:50:20;;;;;;;9.02;0.85;;;7.50;99.90;;;;;;6249128;22;20019;-85
2023/03/05 10:52:56;;;;;;;5.05;0.77;;;7.50;99.90;;;;;;6249198;22;20051;-84
2023/03/05 10:55:22;;;;;;;3.63;0.50;;;7.60;99.90;;;;;;6249457;22;20064;-84
2023/03/05 10:57:48;;;;;;;3.78;0.60;;;7.80;99.90;;;;;;6249215;22;20020;-84
2023/03/05 11:00:33;;;;;;;2.30;0.55;;;7.80;99.90;;;;;;6249459;22;20023;-84
2023/03/05 11:03:02;;;;;;;4.70;0.70;;;7.90;99.90;;;;;;6249397;22;20019;-84
2023/03/05 11:05:50;;;;;;;4.68;1.20;;;7.70;99.90;;;;;;6249241;22;20336;-84
2023/03/05 11:08:21;;;;;;;2.05;0.32;;;7.70;99.90;;;;;;6278005;22;20339;-83
2023/03/05 11:11:00;;;;;;;7.88;1.30;;;7.60;99.90;;;;;;6278498;22;20016;-83
2023/03/05 11:13:27;;;;;;;4.05;0.50;;;7.60;99.90;;;;;;6251007;22;20012;-83
2023/03/05 11:16:04;;;;;;;6.38;0.60;;;7.60;99.90;;;;;;6250631;22;20094;-83
2023/03/05 11:18:33;;;;;;;6.20;0.85;;;7.60;99.90;;;;;;6250900;22;20027;-83
2023/03/05 11:21:18;;;;;;;3.10;0.50;;;7.60;99.90;;;;;;6250864;22;20012;-83
2023/03/05 11:24:02;;;;;;;6.18;0.80;;;7.60;99.90;;;;;;6251217;22;20020;-83
2023/03/05 11:26:27;;;;;;;3.05;0.73;;;7.40;99.90;;;;;;6251093;22;20008;-81
2023/03/05 11:28:53;;;;;;;5.88;1.13;;;7.20;99.90;;;;;;6250633;22;20120;-83
2023/03/05 11:31:25;;;;;;;4.40;0.82;;;7.00;99.90;;;;;;6250855;22;20020;-84
2023/03/05 11:34:04;;;;;;;6.00;1.02;;;6.90;99.90;;;;;;6278358;22;20038;-82
2023/03/05 11:36:35;;;;;;;4.57;1.20;;;7.10;99.90;;;;;;6250909;22;20399;-82
2023/03/05 11:39:15;;;;;;;5.30;0.60;;;7.30;99.90;;;;;;6249881;22;20020;-83
2023/03/05 11:41:59;;;;;;;6.50;0.55;;;7.40;99.90;;;;;;6250590;22;20024;-82
2023/03/05 11:44:57;;;;;;;2.33;0.52;;;7.60;99.90;;;;;;6250776;22;20057;-84
2023/03/05 11:47:43;;;;;;;4.78;0.70;;;7.60;99.90;;;;;;6169057;22;20026;-80
2023/03/05 11:50:14;;;;;;;4.35;0.50;;;7.80;99.90;;;;;;6250602;22;20012;-82
2023/03/05 11:53:02;;;;;;;5.85;0.50;;;7.90;99.90;;;;;;6250664;22;20051;-82
2023/03/05 11:55:44;;;;;;;2.65;0.90;;;7.90;99.90;;;;;;6251131;22;20055;-82
2023/03/05 11:58:36;;;;;;;6.03;0.70;;;7.90;99.90;;;;;;6250537;22;20056;-83
2023/03/05 12:01:05;;;;;;;4.05;0.60;;;7.90;99.90;;;;;;6250792;22;20386;-82
2023/03/05 12:03:37;;;;;;;3.60;0.50;;;7.80;99.90;;;;;;6250813;22;20069;-81
2023/03/05 12:06:06;;;;;;;2.83;0.63;;;7.80;99.90;;;;;;6250515;22;20339;-82
2023/03/05 12:08:36;;;;;;;3.17;0.43;;;7.90;99.90;;;;;;6250428;22;20494;-82
2023/03/05 12:11:19;;;;;;;2.45;0.50;;;7.90;99.90;;;;;;6250334;22;20320;-81
2023/03/05 12:14:03;;;;;;;8.02;0.43;;;8.00;99.90;;;;;;6250505;22;20073;-80
2023/03/05 12:16:47;;;;;;;3.67;0.80;;;8.10;99.90;;;;;;6250456;22;20027;-80
2023/03/05 12:19:35;;;;;;;2.92;0.65;;;8.10;99.90;;;;;;6250431;22;20440;-81
2023/03/05 12:22:01;;;;;;;4.72;0.70;;;8.30;99.90;;;;;;6250356;22;20051;-82
2023/03/05 12:24:27;;;;;;;3.78;0.60;;;8.30;99.90;;;;;;6250464;22;20015;-80
2023/03/05 12:26:55;;;;;;;4.85;0.55;;;8.10;99.90;;;;;;6250279;22;20070;-80
2023/03/05 12:29:28;;;;;;;5.40;0.60;;;8.10;99.90;;;;;;6250122;22;20011;-81
2023/03/05 12:31:53;;;;;;;4.72;0.50;;;8.10;99.90;;;;;;6249967;22;20046;-80
2023/03/05 12:34:41;;;;;;;4.85;0.68;;;8.10;99.90;;;;;;6250125;22;20015;-80
2023/03/05 12:37:27;;;;;;;6.18;0.55;;;8.00;99.90;;;;;;6250088;22;20102;-81
2023/03/05 12:40:11;;;;;;;5.72;0.70;;;8.00;99.90;;;;;;6184266;23;20024;-83
2023/03/05 12:42:36;;;;;;;3.60;0.35;;;8.00;99.90;;;;;;6245126;23;20074;-80
2023/03/05 12:45:11;;;;;;;5.40;0.82;;;8.00;99.90;;;;;;6245011;23;20020;-80
2023/03/05 12:48:01;;;;;;;4.18;0.75;;;7.90;99.90;;;;;;6246742;22;20020;-82
2023/03/05 12:50:26;;;;;;;4.03;0.75;;;7.90;99.90;;;;;;6184981;22;20031;-81
2023/03/05 12:52:52;;;;;;;7.53;0.95;;;8.00;99.90;;;;;;6244912;23;20020;-81
2023/03/05 12:55:36;;;;;;;3.55;0.90;;;7.80;99.90;;;;;;6245348;23;20071;-83
2023/03/05 12:58:31;;;;;;;4.47;1.20;;;7.90;99.90;;;;;;6247183;22;20012;-82
2023/03/05 13:01:15;;;;;;;4.63;0.70;;;7.90;99.90;;;;;;6245150;23;20016;-81
2023/03/05 13:03:48;;;;;;;1.45;0.20;;;8.00;99.90;;;;;;6247127;23;20039;-81
2023/03/05 13:06:35;;;;;;;4.07;0.45;;;7.90;99.90;;;;;;6245250;23;20008;-81
2023/03/05 13:09:06;;;;;;;2.55;0.65;;;8.00;99.90;;;;;;6245230;23;20024;-81
2023/03/05 13:11:37;;;;;;;2.38;0.50;;;7.90;99.90;;;;;;6247007;22;20024;-81
2023/03/05 13:14:15;;;;;;;6.47;0.52;;;7.90;99.90;;;;;;6245246;23;20098;-81
2023/03/05 13:16:41;;;;;;;4.50;0.60;;;7.90;99.90;;;;;;6244990;23;20460;-81
2023/03/05 13:19:16;;;;;;;3.95;0.75;;;7.80;99.90;;;;;;6244879;23;20023;-81